createdAt,value
2019-03-01T00:01:36.801Z,7.13
2019-03-01T00:04:14.720Z,6.67
2019-03-01T00:07:03.736Z,7.70
2019-03-01T00:09:45.281Z,7.13
2019-03-01T00:12:47.977Z,6.60
2019-03-01T00:15:32.105Z,6.23
2019-03-01T00:18:04.453Z,7.60
2019-03-01T00:21:00.412Z,7.80
2019-03-01T00:23:41.223Z,7.63
2019-03-01T00:26:21.819Z,7.50
2019-03-01T00:29:12.458Z,7.03
2019-03-01T00:31:56.076Z,6.83
2019-03-01T00:34:46.299Z,7.60
2019-03-01T00:37:27.166Z,7.27
2019-03-01T00:40:02.406Z,7.20
2019-03-01T00:42:57.256Z,8.30
2019-03-01T00:45:26.520Z,7.07
2019-03-01T00:47:55.801Z,7.10
2019-03-01T00:50:25.064Z,8.27
2019-03-01T00:52:54.333Z,7.47
2019-03-01T00:55:23.612Z,9.07
2019-03-01T00:57:52.871Z,9.43
2019-03-01T01:00:40.400Z,8.23
2019-03-01T01:03:09.663Z,8.30
2019-03-01T01:05:38.936Z,8.03
2019-03-01T01:08:08.196Z,7.53
2019-03-01T01:10:37.535Z,7.93
2019-03-01T01:13:06.804Z,8.07
2019-03-01T01:15:36.068Z,8.53
2019-03-01T01:18:05.328Z,8.87
2019-03-01T01:20:34.617Z,8.30
2019-03-01T01:23:04.112Z,7.30
2019-03-01T01:25:33.385Z,8.50
2019-03-01T01:28:02.648Z,7.67
2019-03-01T01:30:31.919Z,8.67
2019-03-01T01:33:01.187Z,7.50
2019-03-01T01:35:31.123Z,7.57
2019-03-01T01:38:00.397Z,6.63
2019-03-01T01:40:29.669Z,7.37
2019-03-01T01:42:58.956Z,7.53
2019-03-01T01:45:28.295Z,7.27
2019-03-01T01:47:57.572Z,7.67
2019-03-01T01:50:26.851Z,8.57
2019-03-01T01:52:57.190Z,7.80
2019-03-01T01:55:27.428Z,7.50
2019-03-01T01:57:56.697Z,7.60
2019-03-01T02:00:25.967Z,9.50
2019-03-01T02:02:55.228Z,8.37
2019-03-01T02:05:24.500Z,8.70
2019-03-01T02:07:53.773Z,7.83
2019-03-01T02:10:23.051Z,8.53
2019-03-01T02:12:52.317Z,8.77
2019-03-01T02:15:21.590Z,8.70
2019-03-01T02:17:50.859Z,7.97
2019-03-01T02:20:20.128Z,8.17
2019-03-01T02:22:49.401Z,7.87
2019-03-01T02:25:18.676Z,7.83
2019-03-01T02:27:47.935Z,7.73
2019-03-01T02:30:20.055Z,6.73
2019-03-01T02:32:49.326Z,8.00
2019-03-01T02:35:19.337Z,8.00
2019-03-01T02:37:48.596Z,7.73
2019-03-01T02:40:18.101Z,7.97
2019-03-01T02:42:47.372Z,8.10
2019-03-01T02:45:18.289Z,8.60
2019-03-01T02:47:47.544Z,8.43
2019-03-01T02:50:18.456Z,7.63
2019-03-01T02:52:48.006Z,8.33
2019-03-01T02:55:19.909Z,8.03
2019-03-01T02:57:49.192Z,9.17
2019-03-01T03:00:20.593Z,8.47
2019-03-01T03:02:49.868Z,8.57
2019-03-01T03:05:19.148Z,8.43
2019-03-01T03:07:50.060Z,8.10
2019-03-01T03:10:19.394Z,8.73
2019-03-01T03:12:50.719Z,9.10
2019-03-01T03:15:36.469Z,9.43
2019-03-01T03:18:05.752Z,9.90
2019-03-01T03:20:35.025Z,10.00
2019-03-01T03:23:04.363Z,9.93
2019-03-01T03:25:33.629Z,9.73
2019-03-01T03:28:02.911Z,10.67
2019-03-01T03:30:32.184Z,10.53
2019-03-01T03:33:01.464Z,10.63
2019-03-01T03:35:30.799Z,10.63
2019-03-01T03:38:00.068Z,10.83
2019-03-01T03:40:29.355Z,11.63
2019-03-01T03:42:58.622Z,10.80
2019-03-01T03:45:27.925Z,11.47
2019-03-01T03:47:57.250Z,10.43
2019-03-01T03:50:26.518Z,11.07
2019-03-01T03:52:55.797Z,11.17
2019-03-01T03:55:25.069Z,11.37
2019-03-01T03:57:54.349Z,10.83
2019-03-01T04:00:25.524Z,10.73
2019-03-01T04:02:54.808Z,11.63
2019-03-01T04:05:24.072Z,11.57
2019-03-01T04:07:53.358Z,10.83
2019-03-01T04:10:22.614Z,10.90
2019-03-01T04:12:51.896Z,10.30
2019-03-01T04:15:21.159Z,8.80
2019-03-01T04:17:50.432Z,8.80
2019-03-01T04:20:20.387Z,7.07
2019-03-01T04:22:49.679Z,7.23
2019-03-01T04:25:18.986Z,7.40
2019-03-01T04:27:48.249Z,6.90
2019-03-01T04:30:18.228Z,7.73
2019-03-01T04:32:47.496Z,7.17
2019-03-01T04:35:17.180Z,7.80
2019-03-01T04:37:46.489Z,7.97
2019-03-01T04:40:15.938Z,8.60
2019-03-01T04:42:45.200Z,8.57
2019-03-01T04:45:15.907Z,10.17
2019-03-01T04:47:45.172Z,9.50
2019-03-01T04:50:14.443Z,10.17
2019-03-01T04:52:43.788Z,10.10
2019-03-01T04:55:16.270Z,10.60
2019-03-01T04:57:45.523Z,11.20
2019-03-01T05:00:16.937Z,10.20
2019-03-01T05:02:46.207Z,10.13
2019-03-01T05:05:15.819Z,9.20
2019-03-01T05:07:45.095Z,8.40
2019-03-01T05:10:15.405Z,8.97
2019-03-01T05:12:44.672Z,9.70
2019-03-01T05:15:19.145Z,10.50
2019-03-01T05:17:48.412Z,10.03
2019-03-01T05:20:17.761Z,10.37
2019-03-01T05:22:47.042Z,11.13
2019-03-01T05:25:16.389Z,10.33
2019-03-01T05:27:45.658Z,10.03
2019-03-01T05:30:18.746Z,10.27
2019-03-01T05:32:48.014Z,11.00
2019-03-01T05:35:17.297Z,11.27
2019-03-01T05:37:46.563Z,11.83
2019-03-01T05:40:16.538Z,11.63
2019-03-01T05:42:45.812Z,12.37
2019-03-01T05:45:23.364Z,11.47
2019-03-01T05:47:52.645Z,11.80
2019-03-01T05:50:21.933Z,11.93
2019-03-01T05:52:51.180Z,12.50
2019-03-01T05:55:20.472Z,12.97
2019-03-01T05:58:18.534Z,12.30
2019-03-01T06:00:48.563Z,12.93
2019-03-01T06:03:47.537Z,12.37
2019-03-01T06:06:40.336Z,12.30
2019-03-01T06:09:46.264Z,12.47
2019-03-01T06:12:35.312Z,12.87
2019-03-01T06:15:13.185Z,13.10
2019-03-01T06:18:04.540Z,13.63
2019-03-01T06:20:36.902Z,14.23
2019-03-01T06:23:12.040Z,12.93
2019-03-01T06:26:05.624Z,13.87
2019-03-01T06:28:52.076Z,14.13
2019-03-01T06:31:42.736Z,15.30
2019-03-01T06:34:39.348Z,15.03
2019-03-01T06:37:34.177Z,18.90
2019-03-01T06:40:46.064Z,19.93
2019-03-01T06:43:21.228Z,18.17
2019-03-01T06:46:14.741Z,17.07
2019-03-01T06:48:45.658Z,17.43
2019-03-01T06:51:28.360Z,21.87
2019-03-01T06:53:50.476Z,18.27
2019-03-01T06:56:19.741Z,18.87
2019-03-01T06:58:49.031Z,19.70
2019-03-01T07:01:19.065Z,22.70
2019-03-01T07:03:49.983Z,25.60
2019-03-01T07:06:19.247Z,27.27
2019-03-01T07:08:48.525Z,31.33
2019-03-01T07:11:18.089Z,31.00
2019-03-01T07:13:47.367Z,34.47
2019-03-01T07:16:16.640Z,33.20
2019-03-01T07:18:45.914Z,32.33
2019-03-01T07:21:15.198Z,31.97
2019-03-01T07:23:44.469Z,33.57
2019-03-01T07:26:13.740Z,33.83
2019-03-01T07:28:43.020Z,38.17
2019-03-01T07:31:12.283Z,39.30
2019-03-01T07:33:41.568Z,42.97
2019-03-01T07:36:10.851Z,41.57
2019-03-01T07:38:40.127Z,46.00
2019-03-01T07:41:10.365Z,49.63
2019-03-01T07:43:39.646Z,49.80
2019-03-01T07:46:08.934Z,52.27
2019-03-01T07:48:38.499Z,54.30
2019-03-01T07:51:07.852Z,58.00
2019-03-01T07:53:41.778Z,61.93
2019-03-01T07:56:08.107Z,65.50
2019-03-01T07:58:37.387Z,61.00
2019-03-01T08:01:06.668Z,62.47
2019-03-01T08:03:35.981Z,66.27
2019-03-01T08:06:05.309Z,60.70
2019-03-01T08:08:34.880Z,66.97
2019-03-01T08:11:05.559Z,71.53
2019-03-01T08:13:34.834Z,71.30
2019-03-01T08:16:04.175Z,75.40
2019-03-01T08:18:33.457Z,72.70
2019-03-01T08:21:02.793Z,72.37
2019-03-01T08:23:35.032Z,70.47
2019-03-01T08:26:04.793Z,67.20
2019-03-01T08:28:34.087Z,71.13
2019-03-01T08:31:03.353Z,64.47
2019-03-01T08:33:32.628Z,67.60
2019-03-01T08:36:02.306Z,69.87
2019-03-01T08:38:33.461Z,69.67
2019-03-01T08:41:03.669Z,66.77
2019-03-01T08:43:32.986Z,60.37
2019-03-01T08:46:05.504Z,60.47
2019-03-01T08:48:33.638Z,58.17
2019-03-01T08:51:03.940Z,60.70
2019-03-01T08:53:33.217Z,62.97
2019-03-01T08:56:02.500Z,60.73
2019-03-01T08:58:31.776Z,63.93
2019-03-01T09:01:07.198Z,61.33
2019-03-01T09:03:46.977Z,59.23
2019-03-01T09:06:16.855Z,61.73
2019-03-01T09:08:46.904Z,60.37
2019-03-01T09:11:16.265Z,61.20
2019-03-01T09:13:45.541Z,56.93
2019-03-01T09:16:14.829Z,60.53
2019-03-01T09:18:46.544Z,61.20
2019-03-01T09:21:15.080Z,65.33
2019-03-01T09:23:44.367Z,63.40
2019-03-01T09:26:16.663Z,63.43
2019-03-01T09:28:44.617Z,62.97
2019-03-01T09:31:13.897Z,64.67
2019-03-01T09:33:44.157Z,60.23
2019-03-01T09:36:21.562Z,57.60
2019-03-01T09:38:52.571Z,58.83
2019-03-01T09:41:21.849Z,56.40
2019-03-01T09:43:51.133Z,57.57
2019-03-01T09:46:20.861Z,57.60
2019-03-01T09:48:51.392Z,60.00
2019-03-01T09:51:20.667Z,58.30
2019-03-01T09:53:49.937Z,58.83
2019-03-01T09:56:20.285Z,57.77
2019-03-01T09:58:49.628Z,56.03
2019-03-01T10:01:21.045Z,50.87
2019-03-01T10:03:51.653Z,54.50
2019-03-01T10:06:20.935Z,51.47
2019-03-01T10:08:54.233Z,52.90
2019-03-01T10:11:23.503Z,53.03
2019-03-01T10:13:52.792Z,51.13
2019-03-01T10:16:22.069Z,47.80
2019-03-01T10:18:54.049Z,49.33
2019-03-01T10:21:23.328Z,49.23
2019-03-01T10:23:52.621Z,49.67
2019-03-01T10:26:21.892Z,52.10
2019-03-01T10:28:51.185Z,47.37
2019-03-01T10:31:20.462Z,48.27
2019-03-01T10:33:49.735Z,46.50
2019-03-01T10:36:19.008Z,42.60
2019-03-01T10:38:48.301Z,42.83
2019-03-01T10:41:18.536Z,43.93
2019-03-01T10:43:48.895Z,38.83
2019-03-01T10:46:18.164Z,38.27
2019-03-01T10:48:47.448Z,36.43
2019-03-01T10:51:16.717Z,42.43
2019-03-01T10:53:47.814Z,35.90
2019-03-01T10:56:17.971Z,38.83
2019-03-01T10:58:47.251Z,40.57
2019-03-01T11:01:17.764Z,35.83
2019-03-01T11:03:47.044Z,36.23
2019-03-01T11:06:16.322Z,34.97
2019-03-01T11:08:45.590Z,38.37
2019-03-01T11:11:14.870Z,37.67
2019-03-01T11:13:44.145Z,34.67
2019-03-01T11:16:13.420Z,34.47
2019-03-01T11:18:42.766Z,35.87
2019-03-01T11:21:12.049Z,35.20
2019-03-01T11:23:41.320Z,30.20
2019-03-01T11:26:10.611Z,33.87
2019-03-01T11:28:39.902Z,31.27
2019-03-01T11:31:09.179Z,35.47
2019-03-01T11:33:38.453Z,32.97
2019-03-01T11:36:07.728Z,35.13
2019-03-01T11:38:37.015Z,36.93
2019-03-01T11:41:06.764Z,38.73
2019-03-01T11:43:36.178Z,38.63
2019-03-01T11:46:05.537Z,38.17
2019-03-01T11:48:34.815Z,42.33
2019-03-01T11:51:04.092Z,42.40
2019-03-01T11:53:33.374Z,48.47
2019-03-01T11:56:02.653Z,46.33
2019-03-01T11:58:31.934Z,46.30
2019-03-01T12:01:01.229Z,46.57
2019-03-01T12:03:30.772Z,44.87
2019-03-01T12:06:00.052Z,47.17
2019-03-01T12:08:29.328Z,48.37
2019-03-01T12:10:58.608Z,44.70
2019-03-01T12:13:27.885Z,44.13
2019-03-01T12:15:57.165Z,43.77
2019-03-01T12:18:26.443Z,44.67
2019-03-01T12:20:55.889Z,45.23
2019-03-01T12:23:25.162Z,43.07
2019-03-01T12:25:54.444Z,45.10
2019-03-01T12:28:23.725Z,45.57
2019-03-01T12:30:53.008Z,46.80
2019-03-01T12:33:22.281Z,40.60
2019-03-01T12:35:51.566Z,43.03
2019-03-01T12:38:20.837Z,43.10
2019-03-01T12:40:50.123Z,40.63
2019-03-01T12:43:19.405Z,43.63
2019-03-01T12:45:48.689Z,42.90
2019-03-01T12:48:17.977Z,40.97
2019-03-01T12:50:47.253Z,40.30
2019-03-01T12:53:16.527Z,41.07
2019-03-01T12:55:45.813Z,40.70
2019-03-01T12:58:19.407Z,40.97
2019-03-01T13:00:46.064Z,41.80
2019-03-01T13:03:15.354Z,42.77
2019-03-01T13:05:44.620Z,40.13
2019-03-01T13:08:15.794Z,40.60
2019-03-01T13:10:46.172Z,40.60
2019-03-01T13:13:15.540Z,38.87
2019-03-01T13:15:45.377Z,38.70
2019-03-01T13:18:16.865Z,35.20
2019-03-01T13:20:46.278Z,35.47
2019-03-01T13:23:15.561Z,34.10
2019-03-01T13:25:44.838Z,36.47
2019-03-01T13:28:15.240Z,31.57
2019-03-01T13:30:44.538Z,33.70
2019-03-01T13:33:13.982Z,32.30
2019-03-01T13:35:43.261Z,32.83
2019-03-01T13:38:12.545Z,30.73
2019-03-01T13:40:41.821Z,30.53
2019-03-01T13:43:11.104Z,22.10
2019-03-01T13:45:40.686Z,20.67
2019-03-01T13:48:09.961Z,17.33
2019-03-01T13:50:41.575Z,16.93
2019-03-01T13:53:10.227Z,14.97
2019-03-01T13:55:39.570Z,17.47
2019-03-01T13:58:08.841Z,21.20
2019-03-01T14:00:38.109Z,24.27
2019-03-01T14:03:07.396Z,31.60
2019-03-01T14:05:36.665Z,36.33
2019-03-01T14:08:09.047Z,38.30
2019-03-01T14:10:38.574Z,38.07
2019-03-01T14:13:07.900Z,41.00
2019-03-01T14:15:38.524Z,36.67
2019-03-01T14:18:08.721Z,35.30
2019-03-01T14:20:37.993Z,33.23
2019-03-01T14:23:07.272Z,33.10
2019-03-01T14:25:38.602Z,29.23
2019-03-01T14:28:07.818Z,29.33
2019-03-01T14:30:37.086Z,38.60
2019-03-01T14:33:06.440Z,36.23
2019-03-01T14:35:35.785Z,48.43
2019-03-01T14:38:05.073Z,69.77
2019-03-01T14:40:34.353Z,44.77
2019-03-01T14:43:03.701Z,44.17
2019-03-01T14:45:34.520Z,49.27
2019-03-01T14:48:05.084Z,49.17
2019-03-01T14:50:34.858Z,55.87
2019-03-01T14:53:04.129Z,55.73
2019-03-01T14:55:39.297Z,55.60
2019-03-01T14:58:29.518Z,60.10
2019-03-01T15:01:04.284Z,47.63
2019-03-01T15:03:35.744Z,44.70
2019-03-01T15:06:05.764Z,45.93
2019-03-01T15:08:35.577Z,45.23
2019-03-01T15:11:11.197Z,46.87
2019-03-01T15:13:40.477Z,45.63
2019-03-01T15:16:09.908Z,44.80
2019-03-01T15:18:40.627Z,41.07
2019-03-01T15:21:11.074Z,35.80
2019-03-01T15:23:40.336Z,30.83
2019-03-01T15:26:10.764Z,33.23
2019-03-01T15:28:46.432Z,29.17
2019-03-01T15:31:15.718Z,22.83
2019-03-01T15:33:47.019Z,20.47
2019-03-01T15:36:18.084Z,19.27
2019-03-01T15:38:46.952Z,17.47
2019-03-01T15:41:16.238Z,16.87
2019-03-01T15:43:45.515Z,18.20
2019-03-01T15:46:15.437Z,17.03
2019-03-01T15:48:44.737Z,18.17
2019-03-01T15:51:14.018Z,17.90
2019-03-01T15:53:44.218Z,18.50
2019-03-01T15:56:13.500Z,18.27
2019-03-01T15:58:42.782Z,18.77
2019-03-01T16:01:12.257Z,18.40
2019-03-01T16:03:41.748Z,17.90
2019-03-01T16:06:17.438Z,27.47
2019-03-01T16:08:44.022Z,22.20
2019-03-01T16:11:14.109Z,26.63
2019-03-01T16:13:47.754Z,33.60
2019-03-01T16:16:14.565Z,24.77
2019-03-01T16:18:44.060Z,46.00
2019-03-01T16:21:13.403Z,21.57
2019-03-01T16:23:42.737Z,23.60
2019-03-01T16:26:12.042Z,111.53
2019-03-01T16:28:41.313Z,23.30
2019-03-01T16:31:10.639Z,19.70
2019-03-01T16:33:39.926Z,19.63
2019-03-01T16:36:10.902Z,19.43
2019-03-01T16:38:41.163Z,19.10
2019-03-01T16:41:10.654Z,18.73
2019-03-01T16:43:39.939Z,19.03
2019-03-01T16:46:09.211Z,19.03
2019-03-01T16:48:38.497Z,19.27
2019-03-01T16:51:07.817Z,17.93
2019-03-01T16:53:40.713Z,18.57
2019-03-01T16:56:08.081Z,17.53
2019-03-01T16:58:37.353Z,17.47
2019-03-01T17:01:06.629Z,19.00
2019-03-01T17:03:35.920Z,19.70
2019-03-01T17:06:05.383Z,18.73
2019-03-01T17:08:36.406Z,17.23
2019-03-01T17:11:06.566Z,19.10
2019-03-01T17:13:38.816Z,18.57
2019-03-01T17:16:08.213Z,18.37
2019-03-01T17:18:37.534Z,16.20
2019-03-01T17:21:08.656Z,19.83
2019-03-01T17:23:39.403Z,17.90
2019-03-01T17:26:08.789Z,19.93
2019-03-01T17:28:38.095Z,18.63
2019-03-01T17:31:07.445Z,20.50
2019-03-01T17:33:36.788Z,18.57
2019-03-01T17:36:06.174Z,20.70
2019-03-01T17:38:35.571Z,19.43
2019-03-01T17:41:06.335Z,20.77
2019-03-01T17:43:37.883Z,18.90
2019-03-01T17:46:07.152Z,21.13
2019-03-01T17:48:36.417Z,19.17
2019-03-01T17:51:05.691Z,20.77
2019-03-01T17:53:34.967Z,20.10
2019-03-01T17:56:05.455Z,20.50
2019-03-01T17:58:34.744Z,19.83
2019-03-01T18:01:04.153Z,19.30
2019-03-01T18:03:33.426Z,19.37
2019-03-01T18:06:02.849Z,20.47
2019-03-01T18:08:35.838Z,19.37
2019-03-01T18:11:05.495Z,19.40
2019-03-01T18:13:35.202Z,18.40
2019-03-01T18:16:05.438Z,21.93
2019-03-01T18:18:34.727Z,19.27
2019-03-01T18:21:04.006Z,19.80
2019-03-01T18:23:34.225Z,26.70
2019-03-01T18:26:04.393Z,18.37
2019-03-01T18:28:33.673Z,17.77
2019-03-01T18:31:02.953Z,17.77
2019-03-01T18:33:32.232Z,18.27
2019-03-01T18:36:01.592Z,17.87
2019-03-01T18:38:31.330Z,16.90
2019-03-01T18:41:01.685Z,17.40
2019-03-01T18:43:30.984Z,17.00
2019-03-01T18:46:00.312Z,16.37
2019-03-01T18:48:30.056Z,15.40
2019-03-01T18:50:59.342Z,21.47
2019-03-01T18:53:29.679Z,15.80
2019-03-01T18:55:59.096Z,16.13
2019-03-01T18:58:28.398Z,14.77
2019-03-01T19:00:58.727Z,12.23
2019-03-01T19:03:28.013Z,11.87
2019-03-01T19:05:57.291Z,12.63
2019-03-01T19:08:26.570Z,13.10
2019-03-01T19:10:55.851Z,11.27
2019-03-01T19:13:25.650Z,12.33
2019-03-01T19:15:55.172Z,12.27
2019-03-01T19:18:24.447Z,11.53
2019-03-01T19:20:54.667Z,12.20
2019-03-01T19:23:25.669Z,12.97
2019-03-01T19:25:57.914Z,12.93
2019-03-01T19:28:27.639Z,13.53
2019-03-01T19:30:57.064Z,13.43
2019-03-01T19:33:26.328Z,13.40
2019-03-01T19:35:55.605Z,13.37
2019-03-01T19:38:25.266Z,14.63
2019-03-01T19:40:55.147Z,14.37
2019-03-01T19:43:24.744Z,13.80
2019-03-01T19:45:55.075Z,14.77
2019-03-01T19:48:24.358Z,14.97
2019-03-01T19:50:53.701Z,14.67
2019-03-01T19:53:25.485Z,14.67
2019-03-01T19:55:54.004Z,14.87
2019-03-01T19:58:23.287Z,14.40
2019-03-01T20:00:52.561Z,14.57
2019-03-01T20:03:21.840Z,14.53
2019-03-01T20:05:51.123Z,13.13
2019-03-01T20:08:20.401Z,13.23
2019-03-01T20:10:50.894Z,14.70
2019-03-01T20:13:20.740Z,14.03
2019-03-01T20:15:50.000Z,17.57
2019-03-01T20:18:19.296Z,14.70
2019-03-01T20:20:48.590Z,15.27
2019-03-01T20:23:17.857Z,15.23
2019-03-01T20:25:47.585Z,14.23
2019-03-01T20:28:18.121Z,14.33
2019-03-01T20:30:47.392Z,15.17
2019-03-01T20:33:16.675Z,14.77
2019-03-01T20:35:45.951Z,14.43
2019-03-01T20:38:15.241Z,16.67
2019-03-01T20:40:44.512Z,15.37
2019-03-01T20:43:14.869Z,14.87
2019-03-01T20:45:44.151Z,16.93
2019-03-01T20:48:13.499Z,17.17
2019-03-01T20:50:42.780Z,18.33
2019-03-01T20:53:13.386Z,16.33
2019-03-01T20:55:43.061Z,15.23
2019-03-01T20:58:12.344Z,14.97
2019-03-01T21:00:41.617Z,15.37
2019-03-01T21:03:10.901Z,15.50
2019-03-01T21:05:40.178Z,16.07
2019-03-01T21:08:09.453Z,17.30
2019-03-01T21:10:38.726Z,15.07
2019-03-01T21:13:08.743Z,14.83
2019-03-01T21:15:39.016Z,15.50
2019-03-01T21:18:08.293Z,15.27
2019-03-01T21:20:38.665Z,15.10
2019-03-01T21:23:07.945Z,14.70
2019-03-01T21:25:39.774Z,15.50
2019-03-01T21:28:08.288Z,15.47
2019-03-01T21:30:37.637Z,16.97
2019-03-01T21:33:07.885Z,16.27
2019-03-01T21:35:37.180Z,15.77
2019-03-01T21:38:06.455Z,15.03
2019-03-01T21:40:35.743Z,15.77
2019-03-01T21:43:05.080Z,16.13
2019-03-01T21:45:34.631Z,13.27
2019-03-01T21:48:03.978Z,14.20
2019-03-01T21:50:33.256Z,14.07
2019-03-01T21:53:05.502Z,14.70
2019-03-01T21:55:33.514Z,13.97
2019-03-01T21:58:03.387Z,14.43
2019-03-01T22:00:35.417Z,15.13
2019-03-01T22:03:04.829Z,14.00
2019-03-01T22:05:34.104Z,15.33
2019-03-01T22:08:03.374Z,13.60
2019-03-01T22:10:35.592Z,14.03
2019-03-01T22:13:03.632Z,14.03
2019-03-01T22:15:32.920Z,15.63
2019-03-01T22:18:02.187Z,14.93
2019-03-01T22:20:31.468Z,15.60
2019-03-01T22:23:00.755Z,17.20
2019-03-01T22:25:30.043Z,15.87
2019-03-01T22:28:01.132Z,16.77
2019-03-01T22:30:33.905Z,16.93
2019-03-01T22:33:03.168Z,18.27
2019-03-01T22:35:32.461Z,17.37
2019-03-01T22:38:04.791Z,15.87
2019-03-01T22:40:32.710Z,16.50
2019-03-01T22:43:01.993Z,17.33
2019-03-01T22:45:32.253Z,15.27
2019-03-01T22:48:01.519Z,15.63
2019-03-01T22:50:30.889Z,17.10
2019-03-01T22:53:03.206Z,16.83
2019-03-01T22:55:33.490Z,16.27
2019-03-01T22:58:02.985Z,17.00
2019-03-01T23:00:54.588Z,13.90
2019-03-01T23:03:25.075Z,13.47
2019-03-01T23:05:54.506Z,15.07
2019-03-01T23:08:23.786Z,15.43
2019-03-01T23:10:53.799Z,16.57
2019-03-01T23:13:24.036Z,17.20
2019-03-01T23:15:53.316Z,18.17
2019-03-01T23:18:22.584Z,17.83
2019-03-01T23:20:51.864Z,14.80
2019-03-01T23:23:23.792Z,14.97
2019-03-01T23:25:52.126Z,16.73
2019-03-01T23:28:21.380Z,14.27
2019-03-01T23:30:50.664Z,14.67
2019-03-01T23:33:20.005Z,14.13
2019-03-01T23:35:49.660Z,14.00
2019-03-01T23:38:20.277Z,14.00
2019-03-01T23:40:49.536Z,14.87
2019-03-01T23:43:18.796Z,16.03
2019-03-01T23:45:49.863Z,14.23
2019-03-01T23:48:19.175Z,14.40
2019-03-01T23:50:48.474Z,16.53
2019-03-01T23:53:17.744Z,14.47
2019-03-01T23:55:47.030Z,15.57
2019-03-01T23:58:16.756Z,15.03
